KSVC/SVC METAR and TAF weather

Enter ICAO airport designator
Station Type Date Time Source
KSVC METAR 2020/01/22 15:35 UTC NOAA

KSVC 221535Z AUTO 30013KT 10SM BKN033 BKN110 06/03 A3009 RMK AO2 T00580034


Station Type Date Time Source
KSVC Decoded METAR 2020/01/22 15:35 UTC NOAA

Silver City / Grant, NM, United States (KSVC) 32-38N 108-09W
Jan 22, 2020 - 10:35 AM EST / 2020.01.22 1535 UTC
Wind: from the WNW (300 degrees) at 15 MPH (13 KT):0
Visibility: 10 mile(s):0
Sky conditions: mostly cloudy
Temperature: 42.4 F (5.8 C)
Dew Point: 38.1 F (3.4 C)
Relative Humidity: 84%
Pressure (altimeter): 30.09 in. Hg (1018 hPa)
ob: KSVC 221535Z AUTO 30013KT 10SM BKN033 BKN110 06/03 A3009 RMK AO2 T00580034
cycle: 15

Station Type Date Time Source
KSVC TAF UTC NOAA

Error!

Example: see airport list